Time;durP1;ratioP1;P1;durP2;ratioP2;P2;SDS_P1;SDS_P2;PMS_P1;PMS_P2;Temp;Humidity;BMP_temperature;BMP_pressure;BME280_temperature;BME280_humidity;BME280_pressure;Samples;Min_cycle;Max_cycle;Signal;HPM_P1;HPM_P2
2023/11/09 00:00:26;;;;;;;1.33;0.37;;;;;;;;;;5032501;28;20424;-86
2023/11/09 00:02:52;;;;;;;1.90;0.60;;;;;;;;;;5047720;28;20431;-86
2023/11/09 00:05:17;;;;;;;0.87;0.30;;;;;;;;;;5028401;28;20433;-83
2023/11/09 00:07:43;;;;;;;2.00;0.20;;;;;;;;;;5030606;28;20478;-86
2023/11/09 00:10:10;;;;;;;3.50;0.20;;;;;;;;;;5032481;28;20801;-84
2023/11/09 00:12:36;;;;;;;2.53;0.40;;;;;;;;;;5032582;28;20174;-83
2023/11/09 00:15:03;;;;;;;1.03;0.30;;;;;;;;;;5019674;28;20570;-86
2023/11/09 00:17:29;;;;;;;3.30;0.30;;;;;;;;;;5031382;28;20424;-85
2023/11/09 00:19:55;;;;;;;1.27;0.77;;;;;;;;;;5036030;28;20895;-84
2023/11/09 00:22:20;;;;;;;1.43;0.30;;;;;;;;;;5034868;28;20422;-85
2023/11/09 00:24:47;;;;;;;1.90;0.47;;;;;;;;;;5036066;28;20421;-85
2023/11/09 00:27:19;;;;;;;1.87;0.30;;;;;;;;;;5036374;28;20353;-85
2023/11/09 00:29:45;;;;;;;0.77;0.20;;;;;;;;;;5051647;28;20811;-85
2023/11/09 00:32:11;;;;;;;1.10;0.43;;;;;;;;;;5051520;28;20425;-87
2023/11/09 00:34:38;;;;;;;4.17;0.97;;;;;;;;;;5051569;28;20429;-86
2023/11/09 00:37:04;;;;;;;2.50;0.60;;;;;;;;;;5035778;28;20450;-88
2023/11/09 00:39:30;;;;;;;1.37;0.50;;;;;;;;;;5035898;28;20494;-84
2023/11/09 00:41:56;;;;;;;2.57;0.40;;;;;;;;;;5026616;28;20474;-85
2023/11/09 00:44:22;;;;;;;0.80;0.20;;;;;;;;;;5035785;28;20444;-86
2023/11/09 00:46:48;;;;;;;1.37;0.20;;;;;;;;;;5035669;28;20509;-88
2023/11/09 00:49:16;;;;;;;3.13;0.40;;;;;;;;;;5026451;28;20416;-88
2023/11/09 00:51:42;;;;;;;1.10;0.20;;;;;;;;;;5035535;28;20194;-84
2023/11/09 00:54:08;;;;;;;1.70;0.40;;;;;;;;;;5035530;28;20931;-85
2023/11/09 00:56:34;;;;;;;0.67;0.20;;;;;;;;;;5035677;28;20412;-89
2023/11/09 00:58:59;;;;;;;1.30;0.27;;;;;;;;;;5035769;28;20415;-85
2023/11/09 01:01:26;;;;;;;3.00;0.30;;;;;;;;;;5029009;28;20422;-86
2023/11/09 01:03:52;;;;;;;2.57;0.37;;;;;;;;;;5035711;28;20408;-86
2023/11/09 01:06:18;;;;;;;4.03;0.70;;;;;;;;;;5035286;28;20509;-88
2023/11/09 01:08:44;;;;;;;2.20;0.40;;;;;;;;;;5035518;28;20815;-88
2023/11/09 01:11:10;;;;;;;2.67;0.70;;;;;;;;;;5035642;28;20502;-89
2023/11/09 01:13:36;;;;;;;2.57;0.60;;;;;;;;;;5033755;28;20455;-84
2023/11/09 01:16:02;;;;;;;1.87;0.50;;;;;;;;;;5026601;28;20417;-86
2023/11/09 01:18:32;;;;;;;2.20;0.70;;;;;;;;;;5035438;28;20413;-83
2023/11/09 01:20:58;;;;;;;2.93;0.70;;;;;;;;;;5035124;28;20502;-83
2023/11/09 01:23:24;;;;;;;2.57;0.40;;;;;;;;;;5035379;28;20423;-86
2023/11/09 01:25:50;;;;;;;1.20;0.20;;;;;;;;;;5035187;28;20419;-84
2023/11/09 01:28:16;;;;;;;1.10;0.20;;;;;;;;;;5035084;28;20859;-83
2023/11/09 01:30:41;;;;;;;1.90;0.50;;;;;;;;;;5034913;28;20909;-87
2023/11/09 01:33:07;;;;;;;3.00;0.60;;;;;;;;;;5050612;28;20927;-83
2023/11/09 01:35:34;;;;;;;4.80;0.40;;;;;;;;;;5034123;28;20922;-83
2023/11/09 01:37:59;;;;;;;3.50;0.60;;;;;;;;;;5034599;28;20447;-84
2023/11/09 01:40:26;;;;;;;0.87;0.30;;;;;;;;;;5035101;28;20789;-84
2023/11/09 01:42:52;;;;;;;1.93;0.30;;;;;;;;;;5034957;28;20410;-86
2023/11/09 01:45:18;;;;;;;1.17;0.40;;;;;;;;;;5034863;28;20415;-83
2023/11/09 01:47:45;;;;;;;1.17;0.47;;;;;;;;;;5034851;28;20603;-84
2023/11/09 01:50:11;;;;;;;3.23;0.73;;;;;;;;;;5034702;28;20992;-84
2023/11/09 01:52:37;;;;;;;3.07;0.60;;;;;;;;;;5034530;28;20894;-83
2023/11/09 01:55:04;;;;;;;2.33;0.47;;;;;;;;;;5034569;28;20458;-83
2023/11/09 01:57:30;;;;;;;2.93;1.17;;;;;;;;;;5049174;28;20441;-83
2023/11/09 01:59:57;;;;;;;4.43;0.93;;;;;;;;;;5032878;28;20780;-83
2023/11/09 02:02:23;;;;;;;1.57;0.90;;;;;;;;;;5034822;28;20424;-85
2023/11/09 02:04:49;;;;;;;4.30;0.57;;;;;;;;;;5034807;28;20814;-82
2023/11/09 02:07:17;;;;;;;0.80;0.53;;;;;;;;;;5034383;28;20480;-84
2023/11/09 02:09:44;;;;;;;2.23;0.70;;;;;;;;;;5033477;28;20420;-82
2023/11/09 02:12:10;;;;;;;1.20;0.27;;;;;;;;;;5034664;28;20773;-84
2023/11/09 02:14:36;;;;;;;2.60;0.87;;;;;;;;;;5028169;28;20446;-84
2023/11/09 02:17:03;;;;;;;1.67;0.60;;;;;;;;;;5017549;28;20429;-84
2023/11/09 02:19:30;;;;;;;1.50;0.67;;;;;;;;;;5014820;28;20558;-84
2023/11/09 02:21:57;;;;;;;2.87;0.53;;;;;;;;;;5013142;28;20431;-85
2023/11/09 02:24:25;;;;;;;2.30;0.50;;;;;;;;;;5014708;28;20416;-84
2023/11/09 02:26:51;;;;;;;2.33;0.67;;;;;;;;;;5014696;28;20570;-83
2023/11/09 02:29:20;;;;;;;1.07;0.43;;;;;;;;;;5014586;28;20494;-86
2023/11/09 02:31:46;;;;;;;3.47;0.70;;;;;;;;;;5014594;28;20425;-83
2023/11/09 02:34:14;;;;;;;0.90;0.30;;;;;;;;;;5014614;28;20409;-82
2023/11/09 02:36:40;;;;;;;3.07;0.37;;;;;;;;;;5014159;28;20528;-81
2023/11/09 02:39:06;;;;;;;2.03;0.50;;;;;;;;;;5014465;28;20518;-83
2023/11/09 02:41:32;;;;;;;2.23;0.60;;;;;;;;;;5013695;28;20427;-82
2023/11/09 02:43:57;;;;;;;1.47;0.40;;;;;;;;;;5013184;28;20770;-82
2023/11/09 02:46:24;;;;;;;2.73;0.63;;;;;;;;;;5014222;28;20446;-82
2023/11/09 02:48:49;;;;;;;1.93;0.40;;;;;;;;;;5013120;28;20423;-84
2023/11/09 02:51:15;;;;;;;1.23;0.40;;;;;;;;;;5014004;28;20441;-82
2023/11/09 02:53:41;;;;;;;1.00;0.73;;;;;;;;;;5014226;28;21028;-82
2023/11/09 02:56:07;;;;;;;3.67;0.60;;;;;;;;;;5032873;28;20223;-83
2023/11/09 02:58:37;;;;;;;1.63;0.30;;;;;;;;;;5033935;28;20493;-82
2023/11/09 03:01:03;;;;;;;4.83;0.70;;;;;;;;;;5033832;28;20422;-84
2023/11/09 03:03:29;;;;;;;1.57;0.40;;;;;;;;;;5033789;28;20473;-82
2023/11/09 03:05:57;;;;;;;1.20;0.40;;;;;;;;;;5033330;28;20409;-83
2023/11/09 03:08:23;;;;;;;3.10;0.90;;;;;;;;;;5033598;28;20452;-82
2023/11/09 03:10:50;;;;;;;2.47;0.50;;;;;;;;;;5049093;28;20822;-81
2023/11/09 03:13:16;;;;;;;2.40;0.20;;;;;;;;;;5033639;28;20429;-82
2023/11/09 03:15:44;;;;;;;0.47;0.17;;;;;;;;;;5033584;28;20410;-83
2023/11/09 03:18:11;;;;;;;0.80;0.20;;;;;;;;;;5048932;28;20428;-82
2023/11/09 03:20:36;;;;;;;0.87;0.20;;;;;;;;;;5033132;28;20418;-84
2023/11/09 03:23:02;;;;;;;0.97;0.20;;;;;;;;;;5033012;28;20418;-82
2023/11/09 03:25:29;;;;;;;1.80;0.50;;;;;;;;;;5033413;28;20918;-83
2023/11/09 03:27:55;;;;;;;2.03;0.20;;;;;;;;;;5032057;28;21013;-82
2023/11/09 03:30:21;;;;;;;1.70;0.53;;;;;;;;;;5033270;28;20498;-82
2023/11/09 03:32:48;;;;;;;1.30;0.47;;;;;;;;;;5033458;28;20771;-82
2023/11/09 03:35:14;;;;;;;1.73;0.40;;;;;;;;;;5033467;28;20416;-84
2023/11/09 03:37:42;;;;;;;1.33;0.30;;;;;;;;;;5033018;28;20421;-84
2023/11/09 03:40:08;;;;;;;2.30;0.30;;;;;;;;;;5033290;28;20781;-81
2023/11/09 03:42:34;;;;;;;2.47;0.20;;;;;;;;;;5033114;28;20881;-81
2023/11/09 03:45:00;;;;;;;1.77;0.20;;;;;;;;;;5033304;28;20461;-81
2023/11/09 03:47:26;;;;;;;1.00;0.40;;;;;;;;;;5033062;28;20516;-82
2023/11/09 03:49:52;;;;;;;1.40;0.27;;;;;;;;;;5033068;28;20562;-81
2023/11/09 03:52:18;;;;;;;1.37;0.33;;;;;;;;;;5032673;28;20406;-82
2023/11/09 03:54:44;;;;;;;3.17;0.60;;;;;;;;;;5032904;28;20458;-81
2023/11/09 03:57:10;;;;;;;0.87;0.20;;;;;;;;;;5033131;28;20448;-82
2023/11/09 03:59:36;;;;;;;0.50;0.20;;;;;;;;;;5033035;28;20406;-82
2023/11/09 04:02:02;;;;;;;0.50;0.20;;;;;;;;;;5033094;28;20930;-81
2023/11/09 04:04:28;;;;;;;1.33;0.30;;;;;;;;;;5033042;28;20736;-81
2023/11/09 04:06:54;;;;;;;0.60;0.20;;;;;;;;;;5032470;28;20486;-82
2023/11/09 04:09:21;;;;;;;0.63;0.20;;;;;;;;;;5032935;28;20426;-81
2023/11/09 04:11:47;;;;;;;1.07;0.50;;;;;;;;;;5031691;28;20421;-80
2023/11/09 04:14:13;;;;;;;0.67;0.30;;;;;;;;;;5032995;28;20429;-80
2023/11/09 04:16:39;;;;;;;1.10;0.20;;;;;;;;;;5032958;28;20511;-80
2023/11/09 04:19:07;;;;;;;1.17;0.30;;;;;;;;;;5032896;28;20450;-79
2023/11/09 04:21:33;;;;;;;0.50;0.20;;;;;;;;;;5032836;28;20415;-79
2023/11/09 04:23:59;;;;;;;0.50;0.20;;;;;;;;;;5032717;28;20469;-80
2023/11/09 04:26:25;;;;;;;1.63;0.43;;;;;;;;;;5032686;28;20475;-81
2023/11/09 04:28:51;;;;;;;0.80;0.20;;;;;;;;;;5032824;28;20172;-80
2023/11/09 04:31:20;;;;;;;1.43;0.20;;;;;;;;;;5032698;28;20419;-80
2023/11/09 04:33:46;;;;;;;0.77;0.20;;;;;;;;;;5032660;28;20441;-80
2023/11/09 04:36:12;;;;;;;0.70;0.30;;;;;;;;;;5032396;28;20522;-81
2023/11/09 04:38:39;;;;;;;1.17;0.40;;;;;;;;;;5032806;28;20617;-81
2023/11/09 04:41:09;;;;;;;1.37;0.43;;;;;;;;;;5032752;28;20532;-82
2023/11/09 04:43:35;;;;;;;0.80;0.50;;;;;;;;;;5032661;28;20450;-81
2023/11/09 04:46:13;;;;;;;0.90;0.60;;;;;;;;;;5032578;28;20456;-82
2023/11/09 04:48:47;;;;;;;0.90;0.30;;;;;;;;;;5032606;28;20432;-81
2023/11/09 04:51:22;;;;;;;1.23;0.20;;;;;;;;;;5032213;28;20411;-79
2023/11/09 04:53:51;;;;;;;1.00;0.30;;;;;;;;;;5032393;28;20502;-80
2023/11/09 04:56:38;;;;;;;1.10;0.30;;;;;;;;;;5031314;28;20928;-81
2023/11/09 05:06:48;;;;;;;1.23;0.40;;;;;;;;;;5032635;28;20402;-81
2023/11/09 05:07:34;;;;;;;3.90;0.67;;;;;;;;;;5035981;28;20503;-82
2023/11/09 05:10:00;;;;;;;1.20;0.83;;;;;;;;;;5034671;28;20437;-81
2023/11/09 05:12:27;;;;;;;3.23;0.70;;;;;;;;;;5035976;28;20514;-81
2023/11/09 05:14:53;;;;;;;0.90;0.27;;;;;;;;;;5035884;28;20415;-82
2023/11/09 05:17:22;;;;;;;2.87;0.30;;;;;;;;;;5035896;28;20964;-83
2023/11/09 05:19:50;;;;;;;2.50;0.53;;;;;;;;;;5035829;28;20406;-82
2023/11/09 05:22:17;;;;;;;2.03;0.73;;;;;;;;;;5035379;28;20414;-84
2023/11/09 05:24:43;;;;;;;0.60;0.30;;;;;;;;;;5035751;28;20495;-83
2023/11/09 05:27:10;;;;;;;1.07;0.53;;;;;;;;;;5035608;28;20473;-83
2023/11/09 05:29:36;;;;;;;1.70;0.50;;;;;;;;;;5035597;28;20414;-82
2023/11/09 05:32:06;;;;;;;1.30;0.40;;;;;;;;;;5035534;28;20863;-82
2023/11/09 05:34:35;;;;;;;1.03;0.20;;;;;;;;;;5035624;28;20764;-81
2023/11/09 05:37:05;;;;;;;2.63;0.50;;;;;;;;;;5035166;28;20422;-82
2023/11/09 05:39:31;;;;;;;2.40;0.50;;;;;;;;;;5034289;28;20826;-82
2023/11/09 05:41:59;;;;;;;0.70;0.20;;;;;;;;;;5034125;28;20412;-82
2023/11/09 05:44:25;;;;;;;1.20;0.63;;;;;;;;;;5035405;28;20428;-81
2023/11/09 05:46:51;;;;;;;1.77;0.63;;;;;;;;;;5035236;28;20492;-81
2023/11/09 05:49:17;;;;;;;3.13;0.60;;;;;;;;;;5035317;28;20406;-81
2023/11/09 05:51:47;;;;;;;1.17;0.57;;;;;;;;;;5034910;28;20409;-82
2023/11/09 05:54:14;;;;;;;1.17;0.50;;;;;;;;;;5035083;28;20851;-84
2023/11/09 05:56:42;;;;;;;1.30;0.50;;;;;;;;;;5035089;28;20462;-81
2023/11/09 05:59:09;;;;;;;2.10;0.50;;;;;;;;;;5035035;28;20809;-82
2023/11/09 06:01:35;;;;;;;0.83;0.30;;;;;;;;;;5035065;28;20417;-80
2023/11/09 06:04:02;;;;;;;2.17;0.40;;;;;;;;;;5035222;28;20417;-80
2023/11/09 06:06:28;;;;;;;2.40;0.90;;;;;;;;;;5034451;28;20462;-81
2023/11/09 06:08:55;;;;;;;0.90;0.40;;;;;;;;;;5034830;28;20491;-81
2023/11/09 06:11:21;;;;;;;2.83;0.67;;;;;;;;;;5034923;28;20450;-81
2023/11/09 06:13:48;;;;;;;1.80;0.60;;;;;;;;;;5034385;28;20453;-80
2023/11/09 06:16:14;;;;;;;3.60;0.70;;;;;;;;;;5033200;28;20471;-82
2023/11/09 06:18:40;;;;;;;3.10;0.50;;;;;;;;;;5027412;28;20419;-81
2023/11/09 06:21:06;;;;;;;1.93;0.60;;;;;;;;;;5034162;28;20418;-81
2023/11/09 06:23:32;;;;;;;2.43;1.20;;;;;;;;;;5034414;28;20509;-83
2023/11/09 06:25:58;;;;;;;4.13;0.80;;;;;;;;;;5034059;28;20834;-81
2023/11/09 06:28:25;;;;;;;3.63;1.37;;;;;;;;;;5032902;28;20446;-81
2023/11/09 06:30:51;;;;;;;2.50;0.97;;;;;;;;;;5034395;28;20413;-81
2023/11/09 06:33:17;;;;;;;1.60;0.70;;;;;;;;;;5034362;28;20467;-81
2023/11/09 06:35:46;;;;;;;1.30;0.67;;;;;;;;;;5034165;28;20407;-81
2023/11/09 06:38:12;;;;;;;3.03;1.10;;;;;;;;;;5034353;28;20432;-81
2023/11/09 06:40:38;;;;;;;1.80;1.00;;;;;;;;;;5034244;28;20421;-82
2023/11/09 06:43:04;;;;;;;3.00;1.67;;;;;;;;;;5034166;28;20418;-81
2023/11/09 06:45:31;;;;;;;2.00;0.80;;;;;;;;;;5034188;28;20419;-81
2023/11/09 06:47:57;;;;;;;1.50;0.60;;;;;;;;;;5034137;28;20480;-82
2023/11/09 06:50:23;;;;;;;2.60;1.33;;;;;;;;;;5033806;28;20770;-81
2023/11/09 06:52:51;;;;;;;3.20;0.90;;;;;;;;;;5034010;28;20425;-79
2023/11/09 06:55:17;;;;;;;2.37;0.83;;;;;;;;;;5033842;28;20946;-80
2023/11/09 06:57:43;;;;;;;3.73;1.30;;;;;;;;;;5033967;28;20459;-82
2023/11/09 07:00:11;;;;;;;2.63;1.20;;;;;;;;;;5032615;28;20458;-81
2023/11/09 07:02:37;;;;;;;1.73;0.70;;;;;;;;;;5032409;28;20469;-80
2023/11/09 07:05:05;;;;;;;3.83;0.83;;;;;;;;;;5033337;28;20502;-81
2023/11/09 07:07:31;;;;;;;0.87;0.60;;;;;;;;;;5033646;28;20475;-80
2023/11/09 07:09:58;;;;;;;3.03;0.97;;;;;;;;;;5033825;28;20394;-79
2023/11/09 07:12:25;;;;;;;2.93;1.23;;;;;;;;;;5032429;28;20464;-81
2023/11/09 07:14:51;;;;;;;4.80;0.80;;;;;;;;;;5033698;28;20414;-79
2023/11/09 07:17:17;;;;;;;1.20;0.80;;;;;;;;;;5033479;28;20446;-81
2023/11/09 07:19:47;;;;;;;2.87;0.70;;;;;;;;;;5032271;28;20432;-82
2023/11/09 07:22:13;;;;;;;1.77;0.70;;;;;;;;;;5032328;28;20417;-82
2023/11/09 07:24:41;;;;;;;2.43;0.80;;;;;;;;;;5033557;28;20415;-81
2023/11/09 07:27:09;;;;;;;1.93;0.40;;;;;;;;;;5033017;28;20519;-82
2023/11/09 07:29:35;;;;;;;1.75;0.57;;;;;;;;;;5033112;28;20422;-82
2023/11/09 07:32:02;;;;;;;1.97;0.60;;;;;;;;;;5033398;28;20252;-83
2023/11/09 07:34:30;;;;;;;0.90;0.40;;;;;;;;;;5033436;28;20423;-81
2023/11/09 07:36:55;;;;;;;1.73;0.83;;;;;;;;;;5033129;28;20404;-81
2023/11/09 07:39:24;;;;;;;3.63;0.70;;;;;;;;;;5033411;28;20423;-81
2023/11/09 07:41:50;;;;;;;1.80;0.60;;;;;;;;;;5035082;28;20163;-85
2023/11/09 07:44:16;;;;;;;1.40;0.70;;;;;;;;;;5038490;28;20419;-85
2023/11/09 07:46:42;;;;;;;1.87;0.93;;;;;;;;;;5034278;28;20500;-91
2023/11/09 07:49:10;;;;;;;1.90;0.87;;;;;;;;;;5033751;28;20797;-89
2023/11/09 07:51:37;;;;;;;1.20;0.50;;;;;;;;;;5033048;28;20426;-81
2023/11/09 07:54:07;;;;;;;5.23;1.53;;;;;;;;;;5033207;28;20931;-79
2023/11/09 07:56:33;;;;;;;2.23;0.93;;;;;;;;;;5033194;28;20444;-80
2023/11/09 07:58:59;;;;;;;1.60;0.70;;;;;;;;;;5033257;28;20415;-80
2023/11/09 08:01:25;;;;;;;1.17;0.60;;;;;;;;;;5033243;28;20807;-82
2023/11/09 08:03:51;;;;;;;3.37;0.97;;;;;;;;;;5033419;28;20473;-83
2023/11/09 08:06:17;;;;;;;2.90;0.63;;;;;;;;;;5032762;28;20845;-81
2023/11/09 08:08:44;;;;;;;1.23;0.63;;;;;;;;;;5033062;28;20183;-82
2023/11/09 08:11:10;;;;;;;2.50;0.97;;;;;;;;;;5036380;28;20408;-82
2023/11/09 08:13:36;;;;;;;2.20;0.40;;;;;;;;;;5033215;28;20418;-82
2023/11/09 08:16:02;;;;;;;1.67;1.13;;;;;;;;;;5033659;28;20406;-80
2023/11/09 08:18:28;;;;;;;2.53;0.50;;;;;;;;;;5033097;28;20421;-82
2023/11/09 08:20:54;;;;;;;2.83;0.70;;;;;;;;;;5032815;28;20751;-80
2023/11/09 08:23:20;;;;;;;1.83;0.70;;;;;;;;;;5040565;28;20419;-79
2023/11/09 08:25:46;;;;;;;1.37;0.80;;;;;;;;;;5045216;28;20399;-79
2023/11/09 08:28:12;;;;;;;1.43;0.53;;;;;;;;;;5034716;28;20974;-79
2023/11/09 08:30:39;;;;;;;1.17;0.47;;;;;;;;;;5034472;28;20421;-80
2023/11/09 08:33:08;;;;;;;1.57;0.50;;;;;;;;;;5033042;28;20810;-82
2023/11/09 08:35:35;;;;;;;1.03;0.47;;;;;;;;;;5032509;28;20421;-81
2023/11/09 08:38:01;;;;;;;1.50;0.40;;;;;;;;;;5032862;28;20481;-80
2023/11/09 08:40:27;;;;;;;1.20;0.30;;;;;;;;;;5036625;28;20509;-81
2023/11/09 08:42:54;;;;;;;2.47;0.50;;;;;;;;;;5035399;28;20417;-81
2023/11/09 08:45:22;;;;;;;2.53;0.80;;;;;;;;;;5036846;28;20735;-82
2023/11/09 08:47:54;;;;;;;0.93;0.50;;;;;;;;;;5035735;28;20479;-80
2023/11/09 08:50:24;;;;;;;1.83;0.50;;;;;;;;;;5036163;28;20445;-79
2023/11/09 08:52:53;;;;;;;1.20;0.40;;;;;;;;;;5036491;28;20422;-80
2023/11/09 08:55:20;;;;;;;1.13;0.40;;;;;;;;;;5036833;28;20549;-80
2023/11/09 08:57:47;;;;;;;3.90;0.50;;;;;;;;;;5036317;28;20415;-81
2023/11/09 09:00:13;;;;;;;1.57;0.30;;;;;;;;;;5036444;28;20461;-81
2023/11/09 09:02:49;;;;;;;1.13;0.50;;;;;;;;;;5036255;28;20508;-79
2023/11/09 09:05:18;;;;;;;1.10;0.43;;;;;;;;;;5036046;28;20786;-85
2023/11/09 09:07:49;;;;;;;1.83;0.57;;;;;;;;;;5036391;28;20484;-82
2023/11/09 09:10:16;;;;;;;1.43;0.30;;;;;;;;;;5035977;28;20930;-81
2023/11/09 09:12:45;;;;;;;0.97;0.20;;;;;;;;;;5035868;28;20406;-82
2023/11/09 09:15:19;;;;;;;0.70;0.23;;;;;;;;;;5035947;28;20925;-84
2023/11/09 09:17:48;;;;;;;1.23;0.20;;;;;;;;;;5035896;28;20423;-84
2023/11/09 09:20:18;;;;;;;0.43;0.20;;;;;;;;;;5035657;28;20923;-84
2023/11/09 09:22:45;;;;;;;1.30;0.50;;;;;;;;;;5035875;28;20438;-83
2023/11/09 09:25:11;;;;;;;0.73;0.20;;;;;;;;;;5035775;28;20420;-83
2023/11/09 09:27:43;;;;;;;0.57;0.20;;;;;;;;;;5035510;28;20827;-83
2023/11/09 09:30:13;;;;;;;1.20;0.23;;;;;;;;;;5035597;28;20411;-84
2023/11/09 09:32:43;;;;;;;0.90;0.50;;;;;;;;;;5035569;28;20512;-82
2023/11/09 09:35:12;;;;;;;0.50;0.30;;;;;;;;;;5035471;28;20457;-89
2023/11/09 09:37:42;;;;;;;1.47;0.33;;;;;;;;;;5034285;28;20419;-83
2023/11/09 09:40:15;;;;;;;1.53;0.30;;;;;;;;;;5034221;28;20426;-81
2023/11/09 09:42:46;;;;;;;0.90;0.30;;;;;;;;;;5035468;28;20905;-83
2023/11/09 09:45:15;;;;;;;1.47;0.40;;;;;;;;;;5035690;28;20405;-83
2023/11/09 09:47:43;;;;;;;0.70;0.20;;;;;;;;;;5035613;28;20496;-85
2023/11/09 09:50:09;;;;;;;0.70;0.20;;;;;;;;;;5034805;28;20416;-85
2023/11/09 09:52:38;;;;;;;0.70;0.40;;;;;;;;;;5034127;28;20459;-83
2023/11/09 09:55:05;;;;;;;0.87;0.40;;;;;;;;;;5035259;28;20467;-84
2023/11/09 09:57:31;;;;;;;1.70;0.60;;;;;;;;;;5035317;28;20570;-85
2023/11/09 09:59:58;;;;;;;1.33;0.20;;;;;;;;;;5035141;28;20418;-85
2023/11/09 10:02:25;;;;;;;2.23;0.40;;;;;;;;;;5035284;28;20502;-83
2023/11/09 10:04:51;;;;;;;3.33;0.20;;;;;;;;;;5034686;28;20408;-83
2023/11/09 10:07:17;;;;;;;0.80;0.53;;;;;;;;;;5034874;28;20825;-84
2023/11/09 10:09:44;;;;;;;0.60;0.50;;;;;;;;;;5033634;28;20913;-85
2023/11/09 10:12:10;;;;;;;1.90;0.83;;;;;;;;;;5034881;28;20424;-83
2023/11/09 10:14:37;;;;;;;1.73;0.60;;;;;;;;;;5035011;28;20433;-84
2023/11/09 10:17:05;;;;;;;1.13;0.50;;;;;;;;;;5034737;28;20853;-84
2023/11/09 10:19:41;;;;;;;2.20;0.60;;;;;;;;;;5034487;28;20951;-84
2023/11/09 10:22:07;;;;;;;1.30;0.73;;;;;;;;;;5036446;28;20424;-90
2023/11/09 10:24:33;;;;;;;1.10;0.30;;;;;;;;;;5034769;28;20414;-83
2023/11/09 10:26:59;;;;;;;1.30;0.70;;;;;;;;;;5033347;28;20470;-85
2023/11/09 10:29:25;;;;;;;0.93;0.60;;;;;;;;;;5034702;28;20411;-86
2023/11/09 10:31:53;;;;;;;2.33;0.73;;;;;;;;;;5034601;28;20777;-85
2023/11/09 10:34:19;;;;;;;3.83;0.67;;;;;;;;;;5034430;28;20214;-87
2023/11/09 10:36:45;;;;;;;2.30;0.33;;;;;;;;;;5033049;28;20417;-87
2023/11/09 10:39:18;;;;;;;1.90;0.97;;;;;;;;;;5034472;28;20772;-84
2023/11/09 10:41:48;;;;;;;1.83;0.63;;;;;;;;;;5034188;28;20507;-87
2023/11/09 10:44:18;;;;;;;2.50;1.03;;;;;;;;;;5034394;28;20418;-86
2023/11/09 10:46:44;;;;;;;0.70;0.60;;;;;;;;;;5033039;28;20478;-85
2023/11/09 10:49:13;;;;;;;1.50;0.87;;;;;;;;;;5033780;28;20444;-88
2023/11/09 10:51:41;;;;;;;2.20;0.67;;;;;;;;;;5034313;28;20409;-86
2023/11/09 10:54:08;;;;;;;3.73;0.97;;;;;;;;;;5023388;28;20858;-87
2023/11/09 10:56:34;;;;;;;2.00;0.90;;;;;;;;;;5014349;28;20418;-85
2023/11/09 10:59:00;;;;;;;3.03;0.70;;;;;;;;;;5013030;28;20433;-85
2023/11/09 11:01:29;;;;;;;1.90;0.67;;;;;;;;;;5012662;28;20434;-86
2023/11/09 11:03:57;;;;;;;3.43;1.30;;;;;;;;;;5013901;28;20982;-87
2023/11/09 11:06:29;;;;;;;5.77;1.30;;;;;;;;;;5013821;28;20419;-85
2023/11/09 11:08:56;;;;;;;3.00;0.87;;;;;;;;;;5012897;28;20443;-86
2023/11/09 11:11:24;;;;;;;1.93;0.77;;;;;;;;;;5014069;28;20447;-85
2023/11/09 11:13:53;;;;;;;2.20;0.80;;;;;;;;;;5013991;28;20775;-85
2023/11/09 11:16:38;;;;;;;1.40;0.83;;;;;;;;;;5013892;28;20418;-88
2023/11/09 11:19:21;;;;;;;1.87;0.63;;;;;;;;;;5012470;28;20452;-87
2023/11/09 11:22:09;;;;;;;3.50;1.00;;;;;;;;;;5013918;28;20456;-86
2023/11/09 11:24:46;;;;;;;3.10;0.73;;;;;;;;;;5013825;28;20787;-87
2023/11/09 11:27:30;;;;;;;1.47;1.07;;;;;;;;;;5013892;28;20468;-87
2023/11/09 11:29:56;;;;;;;2.10;1.50;;;;;;;;;;5013827;28;20799;-86
2023/11/09 11:32:22;;;;;;;2.07;1.30;;;;;;;;;;5013881;28;20435;-86
2023/11/09 11:34:55;;;;;;;2.00;1.10;;;;;;;;;;5012055;28;20464;-86
2023/11/09 11:37:31;;;;;;;1.60;0.40;;;;;;;;;;5013610;28;20411;-85
2023/11/09 11:39:59;;;;;;;3.63;1.03;;;;;;;;;;5013739;28;20428;-88
2023/11/09 11:42:27;;;;;;;1.40;0.50;;;;;;;;;;5013708;28;20414;-88
2023/11/09 11:44:59;;;;;;;4.50;1.47;;;;;;;;;;5012575;28;20474;-88
2023/11/09 11:47:27;;;;;;;1.60;0.70;;;;;;;;;;5013054;28;20999;-87
2023/11/09 11:50:00;;;;;;;1.27;0.70;;;;;;;;;;5011776;28;20421;-88
2023/11/09 11:52:30;;;;;;;1.40;0.77;;;;;;;;;;5012231;28;20545;-86
2023/11/09 11:55:00;;;;;;;1.40;1.00;;;;;;;;;;5013547;28;20474;-85
2023/11/09 11:57:34;;;;;;;2.60;0.30;;;;;;;;;;5012354;28;20407;-86
2023/11/09 12:00:10;;;;;;;1.27;0.70;;;;;;;;;;5013657;28;21085;-86
2023/11/09 12:02:36;;;;;;;1.80;1.17;;;;;;;;;;5017686;28;20416;-87
2023/11/09 12:05:03;;;;;;;1.47;0.60;;;;;;;;;;5014002;28;20422;-87
2023/11/09 12:07:34;;;;;;;1.27;0.73;;;;;;;;;;5013333;28;21003;-86
2023/11/09 12:10:00;;;;;;;2.07;0.87;;;;;;;;;;5015068;28;20436;-87
2023/11/09 12:12:26;;;;;;;1.67;0.77;;;;;;;;;;5014870;28;20774;-89
2023/11/09 12:14:53;;;;;;;1.30;0.63;;;;;;;;;;5016702;28;20456;-86
2023/11/09 12:17:19;;;;;;;2.40;0.70;;;;;;;;;;5019157;28;20415;-87
2023/11/09 12:19:45;;;;;;;1.50;0.80;;;;;;;;;;5018108;28;20416;-87
2023/11/09 12:22:11;;;;;;;1.90;0.73;;;;;;;;;;5017733;28;20428;-84
2023/11/09 12:24:40;;;;;;;2.37;0.60;;;;;;;;;;5018848;28;20404;-88
2023/11/09 12:27:07;;;;;;;2.63;0.90;;;;;;;;;;5017444;28;20468;-86
2023/11/09 12:29:36;;;;;;;1.70;0.97;;;;;;;;;;5031000;28;20423;-87
2023/11/09 12:32:02;;;;;;;2.53;1.23;;;;;;;;;;5036344;28;20473;-85
2023/11/09 12:34:29;;;;;;;1.17;0.67;;;;;;;;;;5036098;28;20497;-86
2023/11/09 12:36:57;;;;;;;2.70;0.73;;;;;;;;;;5035042;28;20472;-90
2023/11/09 12:39:28;;;;;;;2.17;0.50;;;;;;;;;;5024226;28;20448;-90
2023/11/09 12:42:01;;;;;;;2.47;0.60;;;;;;;;;;5047717;28;20428;-91
2023/11/09 12:44:29;;;;;;;2.90;1.20;;;;;;;;;;5034171;28;20736;-87
2023/11/09 12:47:04;;;;;;;1.37;0.90;;;;;;;;;;5036777;28;20476;-87
2023/11/09 12:49:31;;;;;;;1.00;0.50;;;;;;;;;;5051066;28;20476;-89
2023/11/09 12:51:57;;;;;;;1.57;0.93;;;;;;;;;;5050980;28;20427;-91
2023/11/09 12:54:24;;;;;;;1.43;0.80;;;;;;;;;;5035100;28;20456;-86
2023/11/09 12:56:55;;;;;;;1.37;0.53;;;;;;;;;;5031870;28;20851;-88
2023/11/09 12:59:24;;;;;;;2.43;0.50;;;;;;;;;;5038539;28;20515;-87
2023/11/09 13:01:57;;;;;;;1.50;0.97;;;;;;;;;;5035931;28;20416;-89
2023/11/09 13:04:29;;;;;;;2.83;0.60;;;;;;;;;;5039632;28;20966;-86
2023/11/09 13:06:58;;;;;;;1.43;0.50;;;;;;;;;;5053886;28;20868;-87
2023/11/09 13:14:42;;;;;;;2.10;0.83;;;;;;;;;;5035196;28;20406;-79
2023/11/09 13:17:18;;;;;;;3.50;0.63;;;;;;;;;;5035274;28;20453;-80
2023/11/09 13:19:50;;;;;;;2.73;0.87;;;;;;;;;;5035244;28;20888;-78
2023/11/09 13:22:17;;;;;;;2.37;0.70;;;;;;;;;;5035792;28;20567;-78
2023/11/09 13:24:43;;;;;;;1.40;0.30;;;;;;;;;;5035501;28;20414;-77
2023/11/09 13:27:23;;;;;;;1.17;0.47;;;;;;;;;;5040881;28;20998;-78
2023/11/09 13:29:49;;;;;;;1.47;0.60;;;;;;;;;;5036659;28;20408;-77
2023/11/09 13:32:19;;;;;;;1.30;0.30;;;;;;;;;;5036597;28;20409;-78
2023/11/09 13:34:54;;;;;;;2.00;0.80;;;;;;;;;;5035472;28;20410;-83
2023/11/09 13:37:32;;;;;;;2.50;0.37;;;;;;;;;;5035629;28;20449;-78
2023/11/09 13:41:12;;;;;;;2.87;0.63;;;;;;;;;;5036353;28;20410;-79
2023/11/09 13:43:12;;;;;;;2.97;0.60;;;;;;;;;;5043653;28;20421;-85
2023/11/09 13:45:46;;;;;;;1.23;0.50;;;;;;;;;;5035883;28;20401;-89
2023/11/09 13:48:23;;;;;;;1.80;0.30;;;;;;;;;;5046192;28;20860;-90
2023/11/09 13:50:49;;;;;;;1.37;0.30;;;;;;;;;;5037516;28;20427;-88
2023/11/09 13:58:35;;;;;;;4.00;0.53;;;;;;;;;;5055732;28;20410;-90
2023/11/09 14:01:05;;;;;;;5.63;1.00;;;;;;;;;;5055617;28;20449;-78
2023/11/09 14:03:40;;;;;;;2.60;0.20;;;;;;;;;;5055645;28;20407;-89
2023/11/09 14:06:14;;;;;;;5.40;0.83;;;;;;;;;;5055392;28;20880;-91
2023/11/09 14:08:43;;;;;;;3.07;0.70;;;;;;;;;;5055643;28;20421;-90
2023/11/09 14:11:11;;;;;;;3.57;0.40;;;;;;;;;;5055562;28;20976;-90
2023/11/09 14:13:46;;;;;;;1.80;0.50;;;;;;;;;;5055165;28;20406;-90
2023/11/09 14:16:19;;;;;;;2.00;0.73;;;;;;;;;;5055126;28;20822;-88
2023/11/09 14:18:56;;;;;;;4.70;1.27;;;;;;;;;;5047595;28;20450;-81
2023/11/09 14:21:27;;;;;;;2.03;0.50;;;;;;;;;;5035829;28;20393;-90
2023/11/09 14:23:54;;;;;;;4.43;0.50;;;;;;;;;;5050939;28;21123;-87
2023/11/09 14:26:27;;;;;;;4.37;0.67;;;;;;;;;;5034438;28;20533;-80
2023/11/09 14:29:01;;;;;;;2.40;1.07;;;;;;;;;;5034025;28;20427;-84
2023/11/09 14:31:26;;;;;;;3.70;0.63;;;;;;;;;;5034044;28;20497;-83
2023/11/09 14:33:54;;;;;;;3.33;0.93;;;;;;;;;;5033756;28;20506;-83
2023/11/09 14:36:24;;;;;;;2.17;0.67;;;;;;;;;;5032797;28;20399;-82
2023/11/09 14:38:52;;;;;;;5.93;1.17;;;;;;;;;;5033502;28;20435;-83
2023/11/09 14:41:18;;;;;;;5.83;0.60;;;;;;;;;;5033919;28;20413;-82
2023/11/09 14:43:44;;;;;;;4.40;0.80;;;;;;;;;;5033913;28;20486;-82
2023/11/09 14:46:17;;;;;;;4.33;1.37;;;;;;;;;;5033765;28;20409;-79
2023/11/09 14:48:45;;;;;;;3.17;0.77;;;;;;;;;;5033248;28;20442;-83
2023/11/09 14:51:36;;;;;;;8.73;1.37;;;;;;;;;;5033534;28;20411;-82
2023/11/09 14:54:00;;;;;;;3.50;0.87;;;;;;;;;;5033206;28;20447;-83
2023/11/09 14:56:26;;;;;;;2.90;1.07;;;;;;;;;;5033686;28;20414;-84
2023/11/09 14:58:52;;;;;;;8.80;0.67;;;;;;;;;;5033653;28;20768;-83
2023/11/09 15:01:18;;;;;;;1.77;1.03;;;;;;;;;;5033510;28;20417;-83
2023/11/09 15:03:45;;;;;;;6.43;1.40;;;;;;;;;;5033218;28;20950;-80